Time;durP1;ratioP1;P1;durP2;ratioP2;P2;SDS_P1;SDS_P2;PMS_P1;PMS_P2;Temp;Humidity;BMP_temperature;BMP_pressure;BME280_temperature;BME280_humidity;BME280_pressure;Samples;Min_cycle;Max_cycle;Signal;HPM_P1;HPM_P2
2021/08/12 00:02:13;;;;;;;;;;;20.20;88.70;;;;;;4316935;33;43195;-82
2021/08/12 00:04:40;;;;;;;;;;;20.20;88.70;;;;;;4317209;33;44235;-82
2021/08/12 00:07:08;;;;;;;;;;;20.20;88.80;;;;;;4316391;33;43177;-82
2021/08/12 00:09:38;;;;;;;;;;;20.20;88.80;;;;;;4317106;33;43596;-82
2021/08/12 00:12:05;;;;;;;;;;;20.20;88.80;;;;;;4317085;33;44425;-82
2021/08/12 00:14:33;;;;;;;;;;;20.10;89.50;;;;;;4316506;33;43258;-81
2021/08/12 00:17:02;;;;;;;;;;;20.10;88.80;;;;;;4316989;33;43312;-82
2021/08/12 00:19:29;;;;;;;;;;;20.10;88.80;;;;;;4317283;33;43469;-82
2021/08/12 00:21:56;;;;;;;;;;;20.10;88.80;;;;;;4315740;33;44227;-82
2021/08/12 00:24:25;;;;;;;;;;;20.10;88.80;;;;;;4316818;33;42957;-82
2021/08/12 00:26:53;;;;;;;;;;;20.10;88.60;;;;;;4316756;33;43698;-82
2021/08/12 00:29:22;;;;;;;;;;;20.10;88.80;;;;;;4316760;33;44112;-82
2021/08/12 00:31:49;;;;;;;;;;;20.10;88.70;;;;;;4316918;33;43862;-81
2021/08/12 00:34:17;;;;;;;;;;;20.00;88.60;;;;;;4316487;33;45877;-82
2021/08/12 00:36:43;;;;;;;;;;;20.00;88.80;;;;;;4317099;33;43427;-82
2021/08/12 00:39:13;;;;;;;;;;;20.00;89.00;;;;;;4317136;33;43518;-82
2021/08/12 00:41:40;;;;;;;;;;;20.00;89.00;;;;;;4316905;33;43416;-82
2021/08/12 00:44:07;;;;;;;;;;;20.00;89.20;;;;;;4315585;33;43328;-81
2021/08/12 00:46:34;;;;;;;;;;;20.00;89.30;;;;;;4315881;33;43603;-82
2021/08/12 00:49:04;;;;;;;;;;;20.00;89.30;;;;;;4316889;33;43134;-83
2021/08/12 00:51:32;;;;;;;;;;;20.00;89.40;;;;;;4315403;33;43231;-82
2021/08/12 00:54:01;;;;;;;;;;;19.90;89.40;;;;;;4315591;33;45214;-82
2021/08/12 00:56:33;;;;;;;;;;;20.00;89.60;;;;;;4316290;33;44218;-82
2021/08/12 00:59:01;;;;;;;;;;;20.00;89.60;;;;;;4316875;33;43152;-82
2021/08/12 01:01:30;;;;;;;;;;;19.90;89.70;;;;;;4316206;33;42742;-82
2021/08/12 01:04:01;;;;;;;;;;;19.90;89.80;;;;;;4315793;33;43911;-82
2021/08/12 01:06:30;;;;;;;;;;;19.90;89.80;;;;;;4315327;33;43859;-82
2021/08/12 01:09:03;;;;;;;;;;;19.90;89.90;;;;;;4316214;33;43275;-82
2021/08/12 01:11:38;;;;;;;;;;;19.90;90.00;;;;;;4315454;33;42348;-83
2021/08/12 01:14:05;;;;;;;;;;;19.90;90.00;;;;;;4315216;33;43274;-82
2021/08/12 01:16:36;;;;;;;;;;;19.90;90.00;;;;;;4316542;33;43474;-82
2021/08/12 01:19:29;;;;;;;;;;;19.90;90.00;;;;;;4316575;33;43183;-82
2021/08/12 01:21:57;;;;;;;;;;;19.90;90.00;;;;;;4303866;33;20339;-82
2021/08/12 01:24:27;;;;;;;;;;;19.90;90.00;;;;;;4315331;33;44187;-82
2021/08/12 01:26:58;;;;;;;;;;;19.90;90.10;;;;;;4314922;33;43848;-82
2021/08/12 01:29:38;;;;;;;;;;;19.90;90.10;;;;;;4314808;33;43337;-82
2021/08/12 01:32:13;;;;;;;;;;;19.90;90.20;;;;;;4314741;33;43908;-82
2021/08/12 01:34:40;;;;;;;;;;;19.90;90.20;;;;;;4316484;33;43393;-82
2021/08/12 01:37:09;;;;;;;;;;;19.80;90.20;;;;;;4316320;33;43523;-82
2021/08/12 01:39:37;;;;;;;;;;;19.90;90.20;;;;;;4314656;33;44694;-82
2021/08/12 01:42:05;;;;;;;;;;;19.90;90.20;;;;;;4315175;33;43474;-81
2021/08/12 01:44:33;;;;;;;;;;;19.80;90.20;;;;;;4315546;33;45538;-82
2021/08/12 01:47:01;;;;;;;;;;;19.90;90.20;;;;;;4315678;33;44247;-82
2021/08/12 01:49:28;;;;;;;;;;;19.90;90.20;;;;;;4316074;33;43207;-82
2021/08/12 01:51:55;;;;;;;;;;;19.80;90.20;;;;;;4315679;33;43829;-82
2021/08/12 01:54:28;;;;;;;;;;;19.80;90.20;;;;;;4315729;33;45959;-82
2021/08/12 01:56:57;;;;;;;;;;;19.80;90.20;;;;;;4315051;33;44168;-82
2021/08/12 01:59:27;;;;;;;;;;;19.80;90.20;;;;;;4315528;33;42723;-82
2021/08/12 02:01:55;;;;;;;;;;;19.80;90.30;;;;;;4314584;33;43794;-82
2021/08/12 02:04:23;;;;;;;;;;;19.80;90.30;;;;;;4316126;33;43290;-82
2021/08/12 02:06:51;;;;;;;;;;;19.80;90.20;;;;;;4314500;33;44332;-82
2021/08/12 02:09:18;;;;;;;;;;;19.80;90.30;;;;;;4314688;33;43807;-82
2021/08/12 02:11:46;;;;;;;;;;;19.80;90.30;;;;;;4314847;33;45094;-83
2021/08/12 02:14:13;;;;;;;;;;;19.80;90.30;;;;;;4315877;33;44214;-82
2021/08/12 02:16:41;;;;;;;;;;;19.70;90.30;;;;;;4314428;33;43324;-82
2021/08/12 02:19:08;;;;;;;;;;;19.70;90.40;;;;;;4315581;33;43834;-82
2021/08/12 02:21:43;;;;;;;;;;;19.70;90.40;;;;;;4315385;33;44079;-82
2021/08/12 02:24:14;;;;;;;;;;;19.70;90.50;;;;;;4315870;33;44020;-82
2021/08/12 02:26:58;;;;;;;;;;;19.70;90.50;;;;;;4315861;33;44123;-82
2021/08/12 02:29:27;;;;;;;;;;;19.70;90.50;;;;;;4315814;33;43500;-82
2021/08/12 02:31:56;;;;;;;;;;;19.70;90.60;;;;;;4314474;33;44244;-82
2021/08/12 02:34:24;;;;;;;;;;;19.70;90.60;;;;;;4314969;33;44325;-82
2021/08/12 02:36:52;;;;;;;;;;;19.70;90.60;;;;;;4314256;33;44214;-82
2021/08/12 02:39:19;;;;;;;;;;;19.70;90.70;;;;;;4315883;33;43055;-82
2021/08/12 02:41:47;;;;;;;;;;;19.70;90.70;;;;;;4315642;33;46048;-82
2021/08/12 02:44:14;;;;;;;;;;;19.70;90.70;;;;;;4315409;33;44042;-82
2021/08/12 02:46:41;;;;;;;;;;;19.70;90.70;;;;;;4315258;33;42487;-82
2021/08/12 02:49:09;;;;;;;;;;;19.70;90.70;;;;;;4314277;33;43587;-82
2021/08/12 02:51:38;;;;;;;;;;;19.60;90.70;;;;;;4314707;33;43888;-82
2021/08/12 02:54:05;;;;;;;;;;;19.70;90.70;;;;;;4313867;33;46178;-83
2021/08/12 02:56:33;;;;;;;;;;;19.60;90.60;;;;;;4315382;33;43890;-82
2021/08/12 02:59:00;;;;;;;;;;;19.60;90.60;;;;;;4316870;33;43254;-83
2021/08/12 03:01:27;;;;;;;;;;;19.60;90.70;;;;;;4317142;33;43501;-82
2021/08/12 03:03:58;;;;;;;;;;;19.60;90.70;;;;;;4318483;33;44029;-82
2021/08/12 03:06:29;;;;;;;;;;;19.60;90.70;;;;;;4317317;33;43921;-82
2021/08/12 03:08:56;;;;;;;;;;;19.60;90.70;;;;;;4317843;33;43071;-82
2021/08/12 03:11:25;;;;;;;;;;;19.60;90.70;;;;;;4318276;33;44103;-82
2021/08/12 03:13:54;;;;;;;;;;;19.60;90.70;;;;;;4317935;33;43877;-82
2021/08/12 03:16:21;;;;;;;;;;;19.60;90.80;;;;;;4317115;33;43485;-82
2021/08/12 03:18:48;;;;;;;;;;;19.60;90.80;;;;;;4317220;33;43183;-82
2021/08/12 03:21:15;;;;;;;;;;;19.60;90.80;;;;;;4318070;33;43474;-83
2021/08/12 03:23:43;;;;;;;;;;;19.60;90.90;;;;;;4318152;33;43843;-82
2021/08/12 03:26:13;;;;;;;;;;;19.60;90.90;;;;;;4317880;33;43897;-83
2021/08/12 03:28:42;;;;;;;;;;;19.60;90.90;;;;;;4317785;33;43467;-82
2021/08/12 03:31:09;;;;;;;;;;;19.60;90.90;;;;;;4317520;33;42393;-82
2021/08/12 03:33:37;;;;;;;;;;;19.60;90.90;;;;;;4317420;33;43529;-82
2021/08/12 03:36:04;;;;;;;;;;;19.50;90.90;;;;;;4317852;33;44058;-83
2021/08/12 03:38:34;;;;;;;;;;;19.50;90.90;;;;;;4317508;33;44606;-83
2021/08/12 03:41:01;;;;;;;;;;;19.50;90.90;;;;;;4317369;33;43289;-83
2021/08/12 03:43:28;;;;;;;;;;;19.50;90.90;;;;;;4317719;33;42922;-82
2021/08/12 03:45:55;;;;;;;;;;;19.50;90.90;;;;;;4317602;33;43992;-82
2021/08/12 03:48:22;;;;;;;;;;;19.50;91.00;;;;;;4316653;33;44160;-82
2021/08/12 03:50:49;;;;;;;;;;;19.50;91.00;;;;;;4317252;33;43259;-82
2021/08/12 03:53:16;;;;;;;;;;;19.50;91.00;;;;;;4317181;33;43498;-82
2021/08/12 03:55:43;;;;;;;;;;;19.50;91.00;;;;;;4317226;33;43787;-82
2021/08/12 03:58:10;;;;;;;;;;;19.50;91.00;;;;;;4316017;33;44741;-82
2021/08/12 04:00:37;;;;;;;;;;;19.50;91.00;;;;;;4317100;33;42953;-82
2021/08/12 04:03:05;;;;;;;;;;;19.50;91.10;;;;;;4316066;33;44322;-82
2021/08/12 04:05:34;;;;;;;;;;;19.50;91.10;;;;;;4316985;33;44147;-82
2021/08/12 04:08:01;;;;;;;;;;;19.50;91.10;;;;;;4315161;33;44098;-82
2021/08/12 04:10:28;;;;;;;;;;;19.50;91.10;;;;;;4317210;33;44106;-82
2021/08/12 04:12:55;;;;;;;;;;;19.40;91.10;;;;;;4317320;33;43021;-82
2021/08/12 04:15:22;;;;;;;;;;;19.40;91.10;;;;;;4316887;33;43770;-82
2021/08/12 04:17:49;;;;;;;;;;;19.50;91.10;;;;;;4317284;33;44040;-82
2021/08/12 04:20:18;;;;;;;;;;;19.40;91.10;;;;;;4317286;33;44204;-82
2021/08/12 04:22:46;;;;;;;;;;;19.50;91.10;;;;;;4317026;33;43008;-82
2021/08/12 04:25:13;;;;;;;;;;;19.40;91.10;;;;;;4317390;33;44258;-82
2021/08/12 04:27:43;;;;;;;;;;;19.40;91.20;;;;;;4317035;33;43454;-82
2021/08/12 04:30:12;;;;;;;;;;;19.40;91.20;;;;;;4316135;33;43251;-82
2021/08/12 04:32:40;;;;;;;;;;;19.40;91.20;;;;;;4316156;33;43868;-82
2021/08/12 04:35:08;;;;;;;;;;;19.40;91.20;;;;;;4316744;33;43527;-82
2021/08/12 04:37:36;;;;;;;;;;;19.40;91.20;;;;;;4317177;33;44314;-82
2021/08/12 04:40:06;;;;;;;;;;;19.40;91.20;;;;;;4315783;33;43474;-82
2021/08/12 04:42:33;;;;;;;;;;;19.40;91.20;;;;;;4316883;33;44072;-82
2021/08/12 04:45:02;;;;;;;;;;;19.40;91.20;;;;;;4316936;33;44204;-83
2021/08/12 04:47:29;;;;;;;;;;;19.40;91.30;;;;;;4315468;33;44170;-83
2021/08/12 04:50:04;;;;;;;;;;;19.40;91.30;;;;;;4315390;33;43468;-82
2021/08/12 04:52:34;;;;;;;;;;;19.30;91.40;;;;;;4317019;33;43301;-83
2021/08/12 04:55:01;;;;;;;;;;;19.30;91.40;;;;;;4316251;33;43298;-83
2021/08/12 04:57:28;;;;;;;;;;;19.30;91.40;;;;;;4315593;33;42852;-83
2021/08/12 04:59:57;;;;;;;;;;;19.30;91.40;;;;;;4316393;33;44567;-83
2021/08/12 05:02:26;;;;;;;;;;;19.30;91.40;;;;;;4315070;33;44163;-82
2021/08/12 05:04:53;;;;;;;;;;;19.30;91.40;;;;;;4315212;33;44972;-82
2021/08/12 05:07:20;;;;;;;;;;;19.30;91.50;;;;;;4316519;33;42753;-82
2021/08/12 05:09:47;;;;;;;;;;;19.30;91.50;;;;;;4316178;33;42633;-83
2021/08/12 05:12:19;;;;;;;;;;;19.30;91.50;;;;;;4315932;33;45689;-83
2021/08/12 05:14:49;;;;;;;;;;;19.30;91.60;;;;;;4315014;33;43454;-83
2021/08/12 05:17:16;;;;;;;;;;;19.30;91.60;;;;;;4315970;33;43539;-83
2021/08/12 05:19:44;;;;;;;;;;;19.30;91.60;;;;;;4316023;33;43116;-82
2021/08/12 05:22:11;;;;;;;;;;;19.30;91.70;;;;;;4315332;33;43934;-83
2021/08/12 05:24:39;;;;;;;;;;;19.30;91.70;;;;;;4314941;33;43813;-83
2021/08/12 05:27:06;;;;;;;;;;;19.30;91.70;;;;;;4314937;33;44201;-83
2021/08/12 05:29:34;;;;;;;;;;;19.30;91.80;;;;;;4315899;33;43117;-83
2021/08/12 05:32:01;;;;;;;;;;;19.30;91.80;;;;;;4315877;33;42719;-82
2021/08/12 05:34:28;;;;;;;;;;;19.30;91.80;;;;;;4316354;33;44308;-82
2021/08/12 05:36:55;;;;;;;;;;;19.30;91.90;;;;;;4316212;33;43283;-83
2021/08/12 05:39:24;;;;;;;;;;;19.30;91.90;;;;;;4314684;33;43290;-83
2021/08/12 05:41:51;;;;;;;;;;;19.30;91.90;;;;;;4315850;33;43602;-83
2021/08/12 05:44:18;;;;;;;;;;;19.30;91.90;;;;;;4315691;33;44252;-82
2021/08/12 05:46:46;;;;;;;;;;;19.30;91.90;;;;;;4316144;33;44344;-83
2021/08/12 05:49:13;;;;;;;;;;;19.30;92.00;;;;;;4316064;33;43202;-82
2021/08/12 05:51:40;;;;;;;;;;;19.30;92.00;;;;;;4314991;33;43580;-82
2021/08/12 05:54:07;;;;;;;;;;;19.30;92.10;;;;;;4314459;33;44114;-82
2021/08/12 05:56:37;;;;;;;;;;;19.30;92.00;;;;;;4314523;33;43131;-83
2021/08/12 05:59:04;;;;;;;;;;;19.30;92.10;;;;;;4315594;33;43471;-83
2021/08/12 06:01:31;;;;;;;;;;;19.30;92.10;;;;;;4315489;33;42766;-83
2021/08/12 06:03:59;;;;;;;;;;;19.30;92.20;;;;;;4316150;33;43243;-83
2021/08/12 06:06:26;;;;;;;;;;;19.30;92.20;;;;;;4315875;33;44189;-83
2021/08/12 06:08:53;;;;;;;;;;;19.30;92.20;;;;;;4314456;33;42957;-83
2021/08/12 06:11:20;;;;;;;;;;;19.30;92.20;;;;;;4315764;33;42853;-83
2021/08/12 06:13:50;;;;;;;;;;;19.30;92.30;;;;;;4315881;33;43245;-82
2021/08/12 06:16:20;;;;;;;;;;;19.30;92.30;;;;;;4315797;33;44302;-83
2021/08/12 06:18:47;;;;;;;;;;;19.30;92.30;;;;;;4315455;33;43117;-83
2021/08/12 06:21:15;;;;;;;;;;;19.30;92.40;;;;;;4314359;33;43333;-83
2021/08/12 06:23:42;;;;;;;;;;;19.30;92.40;;;;;;4315025;33;44168;-83
2021/08/12 06:26:10;;;;;;;;;;;19.30;92.40;;;;;;4314588;33;43338;-83
2021/08/12 06:28:39;;;;;;;;;;;19.30;92.50;;;;;;4315887;33;43811;-83
2021/08/12 06:31:06;;;;;;;;;;;19.30;92.50;;;;;;4316531;33;44136;-82
2021/08/12 06:33:33;;;;;;;;;;;19.30;92.50;;;;;;4317621;33;44824;-83
2021/08/12 06:36:00;;;;;;;;;;;19.30;92.50;;;;;;4317232;33;43330;-82
2021/08/12 06:38:30;;;;;;;;;;;19.30;92.50;;;;;;4317232;33;43940;-82
2021/08/12 06:40:59;;;;;;;;;;;19.30;92.50;;;;;;4317483;33;43887;-82
2021/08/12 06:43:28;;;;;;;;;;;19.30;92.50;;;;;;4318634;33;45468;-82
2021/08/12 06:45:55;;;;;;;;;;;19.30;92.50;;;;;;4318095;33;42698;-82
2021/08/12 06:48:22;;;;;;;;;;;19.30;92.60;;;;;;4317498;33;43483;-83
2021/08/12 06:50:50;;;;;;;;;;;19.30;92.70;;;;;;4318041;33;42906;-83
2021/08/12 06:53:16;;;;;;;;;;;19.30;92.70;;;;;;4317012;33;43196;-83
2021/08/12 06:55:44;;;;;;;;;;;19.30;92.70;;;;;;4318119;33;42928;-83
2021/08/12 06:58:11;;;;;;;;;;;19.40;92.80;;;;;;4318438;33;42765;-82
2021/08/12 07:00:37;;;;;;;;;;;19.40;92.80;;;;;;4318329;33;43466;-83
2021/08/12 07:03:05;;;;;;;;;;;19.40;92.90;;;;;;4317715;33;43884;-82
2021/08/12 07:05:32;;;;;;;;;;;19.40;92.90;;;;;;4318076;33;43991;-82
2021/08/12 07:08:02;;;;;;;;;;;19.40;92.90;;;;;;4317812;33;42601;-82
2021/08/12 07:10:29;;;;;;;;;;;19.40;92.90;;;;;;4317077;33;42566;-82
2021/08/12 07:12:58;;;;;;;;;;;19.40;93.00;;;;;;4317850;33;44152;-82
2021/08/12 07:15:25;;;;;;;;;;;19.40;93.00;;;;;;4318027;33;42953;-82
2021/08/12 07:17:52;;;;;;;;;;;19.40;93.00;;;;;;4318399;33;43828;-82
2021/08/12 07:20:20;;;;;;;;;;;19.40;93.00;;;;;;4317673;33;42917;-82
2021/08/12 07:22:48;;;;;;;;;;;19.40;93.10;;;;;;4318009;33;42655;-82
2021/08/12 07:25:15;;;;;;;;;;;19.40;93.10;;;;;;4317902;33;43808;-82
2021/08/12 07:27:43;;;;;;;;;;;19.40;93.10;;;;;;4318067;33;43608;-82
2021/08/12 07:30:10;;;;;;;;;;;19.40;93.20;;;;;;4316454;33;43217;-82
2021/08/12 07:32:37;;;;;;;;;;;19.40;93.20;;;;;;4317610;33;43500;-83
2021/08/12 07:35:06;;;;;;;;;;;19.50;93.20;;;;;;4316543;33;43004;-83
2021/08/12 07:37:33;;;;;;;;;;;19.50;93.20;;;;;;4317750;33;44248;-83
2021/08/12 07:40:00;;;;;;;;;;;19.50;93.20;;;;;;4317750;33;43470;-82
2021/08/12 07:42:27;;;;;;;;;;;19.50;93.20;;;;;;4317668;33;43186;-83
2021/08/12 07:44:54;;;;;;;;;;;19.50;93.20;;;;;;4317370;33;42878;-83
2021/08/12 07:47:24;;;;;;;;;;;19.50;93.30;;;;;;4316357;33;42661;-82
2021/08/12 07:49:51;;;;;;;;;;;19.50;93.30;;;;;;4317288;33;44121;-83
2021/08/12 07:52:21;;;;;;;;;;;19.50;93.30;;;;;;4317621;33;42976;-83
2021/08/12 07:54:49;;;;;;;;;;;19.60;93.30;;;;;;4317486;33;44003;-83
2021/08/12 07:57:16;;;;;;;;;;;19.60;93.30;;;;;;4317571;33;43489;-83
2021/08/12 07:59:43;;;;;;;;;;;19.60;93.40;;;;;;4317207;33;43036;-83
2021/08/12 08:02:10;;;;;;;;;;;19.60;93.40;;;;;;4317104;33;44078;-83
2021/08/12 08:04:37;;;;;;;;;;;19.60;93.40;;;;;;4316115;33;42583;-83
2021/08/12 08:07:07;;;;;;;;;;;19.60;93.40;;;;;;4317083;33;43280;-83
2021/08/12 08:09:34;;;;;;;;;;;19.60;93.40;;;;;;4317162;33;43474;-83
2021/08/12 08:12:01;;;;;;;;;;;19.60;93.30;;;;;;4317471;33;43772;-83
2021/08/12 08:14:28;;;;;;;;;;;19.60;93.40;;;;;;4316837;33;45001;-84
2021/08/12 08:16:58;;;;;;;;;;;19.60;93.30;;;;;;4315850;33;43419;-83
2021/08/12 08:19:25;;;;;;;;;;;19.60;93.30;;;;;;4316838;33;45802;-83
2021/08/12 08:21:53;;;;;;;;;;;19.60;93.30;;;;;;4317418;33;43884;-83
2021/08/12 08:24:20;;;;;;;;;;;19.70;93.30;;;;;;4316083;33;45111;-83
2021/08/12 08:26:47;;;;;;;;;;;19.60;93.30;;;;;;4316811;33;43308;-83
2021/08/12 08:29:17;;;;;;;;;;;19.70;93.30;;;;;;4316901;33;43754;-83
2021/08/12 08:31:49;;;;;;;;;;;19.70;93.30;;;;;;4315975;33;42529;-83
2021/08/12 08:34:16;;;;;;;;;;;19.70;93.40;;;;;;4316737;33;42939;-83
2021/08/12 08:36:43;;;;;;;;;;;19.70;93.30;;;;;;4316580;33;44169;-83
2021/08/12 08:39:11;;;;;;;;;;;19.70;93.30;;;;;;4315992;33;44191;-83
2021/08/12 08:41:38;;;;;;;;;;;19.70;93.30;;;;;;4316011;33;44227;-83
2021/08/12 08:44:06;;;;;;;;;;;19.70;93.30;;;;;;4315660;33;44232;-83
2021/08/12 08:46:33;;;;;;;;;;;19.70;93.40;;;;;;4316420;33;44586;-83
2021/08/12 08:49:02;;;;;;;;;;;19.70;93.30;;;;;;4315682;33;44306;-83
2021/08/12 08:51:30;;;;;;;;;;;19.70;93.30;;;;;;4316814;33;43245;-83
2021/08/12 08:53:57;;;;;;;;;;;19.70;93.40;;;;;;4315264;33;44070;-83
2021/08/12 08:56:27;;;;;;;;;;;19.80;93.40;;;;;;4315648;33;43348;-83
2021/08/12 08:58:58;;;;;;;;;;;19.80;93.40;;;;;;4317094;33;20069;-83
2021/08/12 09:01:25;;;;;;;;;;;19.80;93.40;;;;;;4315440;33;43257;-83
2021/08/12 09:03:53;;;;;;;;;;;19.80;93.40;;;;;;4315679;33;46495;-82
2021/08/12 09:06:20;;;;;;;;;;;19.80;93.40;;;;;;4315610;33;44381;-82
2021/08/12 09:08:47;;;;;;;;;;;19.80;93.40;;;;;;4315637;33;46073;-83
2021/08/12 09:11:14;;;;;;;;;;;19.80;93.40;;;;;;4316035;33;45229;-83
2021/08/12 09:13:41;;;;;;;;;;;19.80;93.40;;;;;;4316246;33;44212;-83
2021/08/12 09:16:27;;;;;;;;;;;19.80;93.40;;;;;;4315301;33;44005;-83
2021/08/12 09:19:10;;;;;;;;;;;19.90;93.40;;;;;;4316477;33;42918;-83
2021/08/12 09:21:37;;;;;;;;;;;19.90;93.40;;;;;;4316171;33;42559;-83
2021/08/12 09:24:05;;;;;;;;;;;19.90;93.40;;;;;;4315602;33;43619;-83
2021/08/12 09:26:38;;;;;;;;;;;19.90;93.40;;;;;;4315094;33;45597;-83
2021/08/12 09:29:06;;;;;;;;;;;19.90;93.40;;;;;;4316094;33;19998;-83
2021/08/12 09:31:34;;;;;;;;;;;19.90;93.40;;;;;;4314734;33;44035;-83
2021/08/12 09:34:11;;;;;;;;;;;19.90;93.40;;;;;;4316385;33;43415;-83
2021/08/12 09:36:39;;;;;;;;;;;19.90;93.40;;;;;;4315213;33;46553;-83
2021/08/12 09:39:07;;;;;;;;;;;19.90;93.30;;;;;;4316340;33;44083;-83
2021/08/12 09:41:38;;;;;;;;;;;20.00;93.40;;;;;;4315040;33;43764;-83
2021/08/12 09:44:05;;;;;;;;;;;19.90;93.40;;;;;;4316156;33;44056;-83
2021/08/12 09:46:35;;;;;;;;;;;20.00;93.40;;;;;;4314671;33;42810;-82
2021/08/12 09:49:02;;;;;;;;;;;20.00;93.30;;;;;;4315354;33;44433;-83
2021/08/12 09:51:33;;;;;;;;;;;20.00;93.30;;;;;;4315991;33;42297;-82
2021/08/12 09:54:04;;;;;;;;;;;20.00;93.30;;;;;;4315647;33;43032;-82
2021/08/12 09:56:33;;;;;;;;;;;20.00;93.20;;;;;;4314968;33;43297;-83
2021/08/12 09:59:04;;;;;;;;;;;20.00;93.20;;;;;;4314447;33;44299;-82
2021/08/12 10:01:32;;;;;;;;;;;20.00;93.20;;;;;;4314512;33;42644;-82
2021/08/12 10:04:17;;;;;;;;;;;20.00;93.50;;;;;;4314956;33;42561;-83
2021/08/12 10:06:44;;;;;;;;;;;20.10;93.20;;;;;;4314460;33;42901;-82
2021/08/12 10:09:18;;;;;;;;;;;20.10;93.20;;;;;;4314908;33;43914;-83
2021/08/12 10:11:45;;;;;;;;;;;20.10;93.20;;;;;;4315137;33;43427;-83
2021/08/12 10:14:12;;;;;;;;;;;20.10;93.10;;;;;;4315726;33;45968;-82
2021/08/12 10:16:40;;;;;;;;;;;20.10;93.10;;;;;;4314286;33;44181;-83
2021/08/12 10:19:09;;;;;;;;;;;20.10;93.10;;;;;;4315815;33;44205;-83
2021/08/12 10:21:39;;;;;;;;;;;20.10;93.00;;;;;;4314712;33;44281;-83
2021/08/12 10:24:07;;;;;;;;;;;20.20;93.10;;;;;;4314446;33;44920;-83
2021/08/12 10:26:35;;;;;;;;;;;20.20;93.00;;;;;;4315360;33;44207;-83
2021/08/12 10:29:12;;;;;;;;;;;20.30;93.00;;;;;;4314768;33;45155;-83
2021/08/12 10:31:45;;;;;;;;;;;20.30;93.00;;;;;;4316042;33;44333;-83
2021/08/12 10:34:15;;;;;;;;;;;20.30;92.90;;;;;;4315411;33;42396;-83
2021/08/12 10:36:44;;;;;;;;;;;20.40;92.80;;;;;;4315331;33;42873;-83
2021/08/12 10:39:16;;;;;;;;;;;20.40;92.80;;;;;;4316219;33;43864;-83
2021/08/12 10:41:43;;;;;;;;;;;20.40;92.80;;;;;;4315271;33;46061;-83
2021/08/12 10:44:10;;;;;;;;;;;20.40;92.70;;;;;;4315792;33;43068;-83
2021/08/12 10:46:38;;;;;;;;;;;20.40;92.70;;;;;;4315237;33;42583;-83
2021/08/12 10:49:25;;;;;;;;;;;20.40;92.60;;;;;;4314296;33;43478;-83
2021/08/12 10:52:05;;;;;;;;;;;20.50;92.70;;;;;;4314343;33;44275;-83
2021/08/12 10:54:33;;;;;;;;;;;20.50;92.60;;;;;;4314741;33;43858;-83
2021/08/12 10:57:12;;;;;;;;;;;20.50;92.60;;;;;;4315092;33;44146;-83
2021/08/12 10:59:41;;;;;;;;;;;20.50;92.50;;;;;;4315908;33;43482;-83
2021/08/12 11:02:26;;;;;;;;;;;20.50;92.60;;;;;;4314178;33;44524;-85
2021/08/12 11:04:54;;;;;;;;;;;20.50;92.50;;;;;;4314639;33;43958;-82
2021/08/12 11:07:39;;;;;;;;;;;20.60;92.60;;;;;;4315531;33;44726;-83
2021/08/12 11:10:08;;;;;;;;;;;20.60;92.50;;;;;;4315321;33;41994;-83
2021/08/12 11:12:53;;;;;;;;;;;20.60;92.40;;;;;;4315404;33;42883;-83
2021/08/12 11:15:39;;;;;;;;;;;20.70;92.40;;;;;;4314336;33;44181;-83
2021/08/12 11:18:07;;;;;;;;;;;20.60;92.40;;;;;;4316130;33;43406;-83
2021/08/12 11:20:45;;;;;;;;;;;20.70;92.30;;;;;;4317650;33;44220;-83
2021/08/12 11:23:21;;;;;;;;;;;20.70;92.40;;;;;;4317220;33;43814;-83
2021/08/12 11:25:55;;;;;;;;;;;20.70;92.70;;;;;;4317676;33;42819;-83
2021/08/12 11:28:41;;;;;;;;;;;20.70;92.30;;;;;;4316801;33;44919;-84
2021/08/12 11:31:08;;;;;;;;;;;20.70;92.30;;;;;;4317740;33;43306;-84
2021/08/12 11:33:46;;;;;;;;;;;20.80;92.30;;;;;;4317710;33;43076;-84
2021/08/12 11:36:17;;;;;;;;;;;20.80;92.20;;;;;;4317008;33;45051;-84
2021/08/12 11:38:48;;;;;;;;;;;20.80;92.20;;;;;;4316922;33;43264;-84
2021/08/12 11:41:16;;;;;;;;;;;20.80;92.20;;;;;;4316720;33;43999;-84
2021/08/12 11:43:44;;;;;;;;;;;20.80;92.20;;;;;;4317391;33;43310;-84
2021/08/12 11:46:11;;;;;;;;;;;20.90;92.10;;;;;;4316733;33;43336;-84
2021/08/12 11:48:39;;;;;;;;;;;20.90;92.20;;;;;;4316711;33;43895;-83
2021/08/12 11:51:06;;;;;;;;;;;20.90;92.00;;;;;;4316743;33;43183;-84
2021/08/12 11:53:40;;;;;;;;;;;21.00;92.20;;;;;;4317230;33;43156;-83
2021/08/12 11:56:24;;;;;;;;;;;21.00;91.90;;;;;;4316249;33;43309;-83
2021/08/12 11:58:53;;;;;;;;;;;21.10;92.10;;;;;;4316568;33;44954;-83
2021/08/12 12:01:22;;;;;;;;;;;21.10;92.00;;;;;;4317361;33;43990;-83
2021/08/12 12:04:09;;;;;;;;;;;21.10;92.00;;;;;;4317672;33;43230;-83
2021/08/12 12:06:37;;;;;;;;;;;21.10;92.00;;;;;;4317178;33;44066;-82
2021/08/12 12:09:24;;;;;;;;;;;21.20;92.10;;;;;;4315925;33;44222;-82
2021/08/12 12:12:02;;;;;;;;;;;21.20;91.80;;;;;;4315887;33;44756;-82
2021/08/12 12:14:31;;;;;;;;;;;21.30;91.90;;;;;;4315862;33;42101;-82
2021/08/12 12:17:08;;;;;;;;;;;21.30;91.90;;;;;;4316929;33;44027;-82
2021/08/12 12:19:36;;;;;;;;;;;21.30;91.80;;;;;;4315904;33;44914;-82
2021/08/12 12:22:15;;;;;;;;;;;21.40;91.80;;;;;;4317377;33;44076;-82
2021/08/12 12:24:45;;;;;;;;;;;21.40;91.70;;;;;;4317413;33;43982;-82
2021/08/12 12:27:17;;;;;;;;;;;21.50;91.70;;;;;;4315641;33;44052;-82
2021/08/12 12:29:50;;;;;;;;;;;21.50;91.60;;;;;;4316369;33;45532;-83
2021/08/12 12:32:19;;;;;;;;;;;21.50;91.70;;;;;;4316329;33;43415;-82
2021/08/12 12:34:53;;;;;;;;;;;21.60;91.70;;;;;;4317120;33;43482;-82
2021/08/12 12:37:24;;;;;;;;;;;21.60;91.60;;;;;;4316092;33;44563;-83
2021/08/12 12:39:51;;;;;;;;;;;21.60;91.60;;;;;;4316596;33;43550;-82
2021/08/12 12:42:37;;;;;;;;;;;21.70;91.70;;;;;;4316985;33;44338;-83
2021/08/12 12:45:09;;;;;;;;;;;21.70;91.70;;;;;;4315850;33;45563;-83
2021/08/12 12:47:37;;;;;;;;;;;21.70;91.50;;;;;;4316566;33;42493;-82
2021/08/12 12:50:05;;;;;;;;;;;21.80;91.70;;;;;;4315792;33;43368;-82
2021/08/12 12:52:51;;;;;;;;;;;21.80;91.70;;;;;;4316694;33;43320;-82
2021/08/12 12:55:19;;;;;;;;;;;21.80;91.60;;;;;;4316830;33;42619;-82
2021/08/12 12:57:46;;;;;;;;;;;21.80;91.70;;;;;;4316329;33;43791;-83
2021/08/12 13:00:27;;;;;;;;;;;21.80;91.70;;;;;;4315690;33;46046;-82
2021/08/12 13:02:55;;;;;;;;;;;21.90;91.70;;;;;;4316313;33;44807;-82
2021/08/12 13:05:23;;;;;;;;;;;21.90;91.60;;;;;;4317013;33;19997;-83
2021/08/12 13:07:50;;;;;;;;;;;21.90;91.60;;;;;;4315149;33;42751;-82
2021/08/12 13:10:25;;;;;;;;;;;21.90;91.60;;;;;;4315682;33;43494;-82
2021/08/12 13:12:56;;;;;;;;;;;22.00;91.70;;;;;;4315611;33;43344;-82
2021/08/12 13:15:23;;;;;;;;;;;22.00;91.70;;;;;;4314905;33;46233;-83
2021/08/12 13:18:00;;;;;;;;;;;22.00;91.70;;;;;;4315183;33;44926;-83
2021/08/12 13:20:57;;;;;;;;;;;22.00;91.70;;;;;;4316626;33;44080;-82
2021/08/12 13:23:24;;;;;;;;;;;22.00;91.70;;;;;;4312448;33;43284;-83
2021/08/12 13:25:55;;;;;;;;;;;22.10;91.70;;;;;;4315099;33;44762;-83
2021/08/12 13:28:32;;;;;;;;;;;22.10;91.70;;;;;;4316463;33;43719;-82
2021/08/12 13:31:13;;;;;;;;;;;22.10;91.70;;;;;;4316448;33;43918;-82
2021/08/12 13:33:44;;;;;;;;;;;22.10;91.70;;;;;;4315347;33;45023;-82
2021/08/12 13:36:11;;;;;;;;;;;22.10;91.80;;;;;;4315582;33;20002;-83
2021/08/12 13:38:41;;;;;;;;;;;22.20;91.80;;;;;;4315983;33;43243;-83
2021/08/12 13:41:11;;;;;;;;;;;22.20;91.60;;;;;;4315170;33;44440;-82
2021/08/12 13:43:38;;;;;;;;;;;22.20;91.80;;;;;;4315226;33;43890;-82
2021/08/12 13:46:09;;;;;;;;;;;22.20;91.80;;;;;;4316202;33;42568;-83
2021/08/12 13:48:36;;;;;;;;;;;22.30;91.80;;;;;;4314667;33;42851;-82
2021/08/12 13:51:03;;;;;;;;;;;22.30;91.80;;;;;;4315803;33;44031;-82
2021/08/12 13:53:30;;;;;;;;;;;22.30;91.80;;;;;;4316202;33;44815;-82
2021/08/12 13:55:57;;;;;;;;;;;22.40;91.80;;;;;;4314927;33;45010;-82
2021/08/12 13:58:24;;;;;;;;;;;22.40;91.70;;;;;;4315585;33;43889;-83
2021/08/12 14:00:51;;;;;;;;;;;22.40;91.70;;;;;;4315672;33;44057;-82
2021/08/12 14:03:24;;;;;;;;;;;22.50;91.70;;;;;;4314470;33;43567;-83
2021/08/12 14:05:54;;;;;;;;;;;22.50;91.70;;;;;;4314657;33;44215;-83
2021/08/12 14:08:26;;;;;;;;;;;22.60;91.70;;;;;;4315727;33;43517;-83
2021/08/12 14:10:56;;;;;;;;;;;22.60;91.70;;;;;;4316095;33;44484;-83
2021/08/12 14:13:29;;;;;;;;;;;22.60;91.60;;;;;;4314894;33;45880;-83
2021/08/12 14:15:56;;;;;;;;;;;22.60;91.60;;;;;;4314488;33;42902;-83
2021/08/12 14:18:23;;;;;;;;;;;22.60;91.70;;;;;;4314442;33;43934;-83
2021/08/12 14:20:50;;;;;;;;;;;22.70;91.60;;;;;;4315897;33;44203;-82
2021/08/12 14:23:20;;;;;;;;;;;22.70;91.70;;;;;;4315866;33;46214;-82
2021/08/12 14:25:47;;;;;;;;;;;22.70;91.70;;;;;;4314289;33;45948;-83
2021/08/12 14:28:14;;;;;;;;;;;22.70;91.70;;;;;;4315953;33;43501;-83
2021/08/12 14:30:41;;;;;;;;;;;22.70;91.60;;;;;;4314472;33;44204;-83